sensor_id;sensor_type;location;lat;lon;timestamp;pressure;altitude;pressure_sealevel;temperature;humidity
19795;BME280;10057;59.402;17.866;2022-08-11T00:01:19;101939.50;;;19.31;63.07
19795;BME280;10057;59.402;17.866;2022-08-11T00:03:50;101942.19;;;19.31;63.15
19795;BME280;10057;59.402;17.866;2022-08-11T00:06:30;101932.22;;;19.33;63.24
19795;BME280;10057;59.402;17.866;2022-08-11T00:08:58;101935.78;;;19.33;63.19
19795;BME280;10057;59.402;17.866;2022-08-11T00:11:45;101932.38;;;19.30;63.16
19795;BME280;10057;59.402;17.866;2022-08-11T00:14:15;101928.84;;;19.29;63.20
19795;BME280;10057;59.402;17.866;2022-08-11T00:16:43;101926.31;;;19.26;63.33
19795;BME280;10057;59.402;17.866;2022-08-11T00:19:28;101929.00;;;19.26;63.34
19795;BME280;10057;59.402;17.866;2022-08-11T00:22:21;101920.28;;;19.21;63.39
19795;BME280;10057;59.402;17.866;2022-08-11T00:24:49;101909.19;;;19.11;63.82
19795;BME280;10057;59.402;17.866;2022-08-11T00:27:30;101911.00;;;19.11;63.88
19795;BME280;10057;59.402;17.866;2022-08-11T00:29:57;101915.50;;;19.10;64.04
19795;BME280;10057;59.402;17.866;2022-08-11T00:32:24;101911.09;;;19.09;64.06
19795;BME280;10057;59.402;17.866;2022-08-11T00:34:52;101911.19;;;19.08;64.02
19795;BME280;10057;59.402;17.866;2022-08-11T00:37:45;101912.38;;;19.02;64.12
19795;BME280;10057;59.402;17.866;2022-08-11T00:40:18;101909.00;;;18.99;64.38
19795;BME280;10057;59.402;17.866;2022-08-11T00:43:16;101903.88;;;18.94;64.61
19795;BME280;10057;59.402;17.866;2022-08-11T00:46:10;101901.25;;;18.92;64.61
19795;BME280;10057;59.402;17.866;2022-08-11T00:48:58;101897.84;;;18.89;64.51
19795;BME280;10057;59.402;17.866;2022-08-11T00:57:16;101899.03;;;18.83;65.02
19795;BME280;10057;59.402;17.866;2022-08-11T01:00:16;101896.63;;;18.79;65.00
19795;BME280;10057;59.402;17.866;2022-08-11T01:05:47;101894.09;;;18.76;65.10
19795;BME280;10057;59.402;17.866;2022-08-11T01:25:58;101878.91;;;18.75;65.10
19795;BME280;10057;59.402;17.866;2022-08-11T01:37:01;101881.91;;;18.68;65.49
19795;BME280;10057;59.402;17.866;2022-08-11T01:46:14;101887.91;;;18.56;65.53
19795;BME280;10057;59.402;17.866;2022-08-11T01:48:52;101890.84;;;18.52;65.61
19795;BME280;10057;59.402;17.866;2022-08-11T02:04:32;101889.84;;;18.37;65.89
19795;BME280;10057;59.402;17.866;2022-08-11T02:09:51;101889.13;;;18.33;66.16
19795;BME280;10057;59.402;17.866;2022-08-11T02:12:36;101894.56;;;18.32;66.28
19795;BME280;10057;59.402;17.866;2022-08-11T02:15:38;101898.31;;;18.29;66.27
19795;BME280;10057;59.402;17.866;2022-08-11T02:18:32;101897.41;;;18.29;66.38
19795;BME280;10057;59.402;17.866;2022-08-11T02:21:25;101898.44;;;18.26;66.54
19795;BME280;10057;59.402;17.866;2022-08-11T02:24:16;101891.47;;;18.22;66.61
19795;BME280;10057;59.402;17.866;2022-08-11T02:26:49;101905.00;;;18.20;66.82
19795;BME280;10057;59.402;17.866;2022-08-11T02:29:26;101902.31;;;18.20;66.82
19795;BME280;10057;59.402;17.866;2022-08-11T02:37:52;101903.66;;;18.29;66.90
19795;BME280;10057;59.402;17.866;2022-08-11T02:40:33;101899.06;;;18.31;66.60
19795;BME280;10057;59.402;17.866;2022-08-11T02:43:10;101897.97;;;18.35;66.78
19795;BME280;10057;59.402;17.866;2022-08-11T02:45:51;101901.28;;;18.40;66.84
19795;BME280;10057;59.402;17.866;2022-08-11T02:56:51;101889.44;;;18.44;66.62
19795;BME280;10057;59.402;17.866;2022-08-11T02:59:52;101891.16;;;18.45;66.77
19795;BME280;10057;59.402;17.866;2022-08-11T03:05:47;101888.63;;;18.42;66.62
19795;BME280;10057;59.402;17.866;2022-08-11T03:08:28;101886.91;;;18.41;66.78
19795;BME280;10057;59.402;17.866;2022-08-11T03:11:04;101898.44;;;18.43;66.74
19795;BME280;10057;59.402;17.866;2022-08-11T03:14:00;101896.78;;;18.41;66.85
19795;BME280;10057;59.402;17.866;2022-08-11T03:25:52;101885.31;;;18.37;67.20
19795;BME280;10057;59.402;17.866;2022-08-11T03:31:33;101892.59;;;18.35;67.29
19795;BME280;10057;59.402;17.866;2022-08-11T03:34:21;101892.59;;;18.35;67.51
19795;BME280;10057;59.402;17.866;2022-08-11T03:40:19;101887.00;;;18.40;67.51
19795;BME280;10057;59.402;17.866;2022-08-11T03:46:07;101870.00;;;18.39;67.52
19795;BME280;10057;59.402;17.866;2022-08-11T03:48:51;101867.31;;;18.39;67.76
19795;BME280;10057;59.402;17.866;2022-08-11T03:51:24;101860.19;;;18.38;67.79
19795;BME280;10057;59.402;17.866;2022-08-11T03:54:27;101863.84;;;18.37;67.72
19795;BME280;10057;59.402;17.866;2022-08-11T03:57:27;101862.88;;;18.38;67.87
19795;BME280;10057;59.402;17.866;2022-08-11T04:03:06;101864.53;;;18.41;67.86
19795;BME280;10057;59.402;17.866;2022-08-11T04:06:28;101865.41;;;18.41;67.95
19795;BME280;10057;59.402;17.866;2022-08-11T04:17:47;101871.50;;;18.45;67.74
19795;BME280;10057;59.402;17.866;2022-08-11T04:20:28;101872.44;;;18.44;68.11
19795;BME280;10057;59.402;17.866;2022-08-11T04:26:50;101873.41;;;18.43;68.00
19795;BME280;10057;59.402;17.866;2022-08-11T04:53:09;101855.66;;;18.56;68.41
19795;BME280;10057;59.402;17.866;2022-08-11T04:56:14;101857.16;;;18.62;68.25
19795;BME280;10057;59.402;17.866;2022-08-11T05:08:24;101853.28;;;18.67;68.34
19795;BME280;10057;59.402;17.866;2022-08-11T05:13:29;101844.84;;;18.75;68.82
19795;BME280;10057;59.402;17.866;2022-08-11T05:16:23;101846.50;;;18.78;68.73
19795;BME280;10057;59.402;17.866;2022-08-11T05:19:18;101854.31;;;18.82;68.67
19795;BME280;10057;59.402;17.866;2022-08-11T05:22:17;101860.38;;;18.86;68.57
19795;BME280;10057;59.402;17.866;2022-08-11T05:25:09;101861.94;;;18.90;68.61
19795;BME280;10057;59.402;17.866;2022-08-11T05:31:15;101869.63;;;18.98;68.72
19795;BME280;10057;59.402;17.866;2022-08-11T05:34:09;101860.59;;;18.99;68.49
19795;BME280;10057;59.402;17.866;2022-08-11T05:37:00;101867.63;;;19.01;68.62
19795;BME280;10057;59.402;17.866;2022-08-11T05:39:52;101861.44;;;18.99;68.53
19795;BME280;10057;59.402;17.866;2022-08-11T05:42:48;101860.44;;;19.02;68.52
19795;BME280;10057;59.402;17.866;2022-08-11T05:45:34;101856.50;;;19.07;68.58
19795;BME280;10057;59.402;17.866;2022-08-11T05:48:34;101857.03;;;19.14;68.48
19795;BME280;10057;59.402;17.866;2022-08-11T05:51:20;101855.84;;;19.20;68.49
19795;BME280;10057;59.402;17.866;2022-08-11T05:54:21;101860.88;;;19.26;68.39
19795;BME280;10057;59.402;17.866;2022-08-11T05:57:07;101859.75;;;19.30;68.18
19795;BME280;10057;59.402;17.866;2022-08-11T05:59:35;101849.69;;;19.33;68.33
19795;BME280;10057;59.402;17.866;2022-08-11T06:02:05;101853.94;;;19.37;68.32
19795;BME280;10057;59.402;17.866;2022-08-11T06:04:33;101857.25;;;19.42;68.16
19795;BME280;10057;59.402;17.866;2022-08-11T06:07:02;101861.50;;;19.47;68.06
19795;BME280;10057;59.402;17.866;2022-08-11T06:09:51;101868.16;;;19.55;68.09
19795;BME280;10057;59.402;17.866;2022-08-11T06:12:32;101866.19;;;19.59;67.86
19795;BME280;10057;59.402;17.866;2022-08-11T06:15:05;101863.25;;;19.63;67.76
19795;BME280;10057;59.402;17.866;2022-08-11T06:17:35;101866.69;;;19.65;67.56
19795;BME280;10057;59.402;17.866;2022-08-11T06:20:09;101856.63;;;19.69;67.74
19795;BME280;10057;59.402;17.866;2022-08-11T06:22:42;101851.06;;;19.72;67.69
19795;BME280;10057;59.402;17.866;2022-08-11T06:25:16;101852.53;;;19.78;67.58
19795;BME280;10057;59.402;17.866;2022-08-11T06:27:44;101841.59;;;19.81;67.30
19795;BME280;10057;59.402;17.866;2022-08-11T06:30:11;101837.69;;;19.86;67.35
19795;BME280;10057;59.402;17.866;2022-08-11T06:32:43;101851.72;;;19.92;67.23
19795;BME280;10057;59.402;17.866;2022-08-11T06:38:27;101840.88;;;19.93;67.09
19795;BME280;10057;59.402;17.866;2022-08-11T06:41:00;101832.81;;;19.93;66.94
19795;BME280;10057;59.402;17.866;2022-08-11T06:46:28;101826.78;;;20.04;66.99
19795;BME280;10057;59.402;17.866;2022-08-11T06:48:56;101838.31;;;20.06;66.93
19795;BME280;10057;59.402;17.866;2022-08-11T06:51:26;101852.47;;;20.09;66.68
19795;BME280;10057;59.402;17.866;2022-08-11T06:54:00;101845.06;;;20.13;66.76
19795;BME280;10057;59.402;17.866;2022-08-11T06:56:40;101838.56;;;20.17;66.50
19795;BME280;10057;59.402;17.866;2022-08-11T06:59:46;101835.47;;;20.23;66.49
19795;BME280;10057;59.402;17.866;2022-08-11T07:02:48;101835.47;;;20.23;66.09
19795;BME280;10057;59.402;17.866;2022-08-11T07:05:25;101833.56;;;20.25;66.41
19795;BME280;10057;59.402;17.866;2022-08-11T07:14:32;101825.50;;;20.40;65.76
19795;BME280;10057;59.402;17.866;2022-08-11T07:17:27;101824.25;;;20.45;66.21
19795;BME280;10057;59.402;17.866;2022-08-11T07:19:59;101826.50;;;20.53;66.05
19795;BME280;10057;59.402;17.866;2022-08-11T07:22:53;101831.03;;;20.67;65.66
19795;BME280;10057;59.402;17.866;2022-08-11T07:25:41;101829.31;;;20.80;65.51
19795;BME280;10057;59.402;17.866;2022-08-11T07:28:29;101829.41;;;20.93;65.40
19795;BME280;10057;59.402;17.866;2022-08-11T07:31:25;101833.81;;;21.08;65.64
19795;BME280;10057;59.402;17.866;2022-08-11T07:34:06;101845.53;;;21.21;64.97
19795;BME280;10057;59.402;17.866;2022-08-11T07:36:50;101842.34;;;21.29;64.65
19795;BME280;10057;59.402;17.866;2022-08-11T07:39:20;101839.94;;;21.39;65.20
19795;BME280;10057;59.402;17.866;2022-08-11T07:41:49;101843.56;;;21.52;65.47
19795;BME280;10057;59.402;17.866;2022-08-11T07:44:16;101837.56;;;21.61;65.11
19795;BME280;10057;59.402;17.866;2022-08-11T07:46:47;101829.72;;;21.71;65.51
19795;BME280;10057;59.402;17.866;2022-08-11T07:49:35;101844.31;;;21.81;65.51
19795;BME280;10057;59.402;17.866;2022-08-11T07:52:21;101838.41;;;21.89;66.07
19795;BME280;10057;59.402;17.866;2022-08-11T07:55:12;101847.09;;;22.07;65.95
19795;BME280;10057;59.402;17.866;2022-08-11T07:57:40;101850.53;;;22.23;64.91
19795;BME280;10057;59.402;17.866;2022-08-11T08:00:51;101849.22;;;22.29;63.36
19795;BME280;10057;59.402;17.866;2022-08-11T08:03:48;101849.00;;;22.32;62.02
19795;BME280;10057;59.402;17.866;2022-08-11T08:06:35;101856.25;;;22.31;61.37
19795;BME280;10057;59.402;17.866;2022-08-11T08:09:21;101849.22;;;22.29;60.94
19795;BME280;10057;59.402;17.866;2022-08-11T08:12:08;101855.59;;;22.28;60.72
19795;BME280;10057;59.402;17.866;2022-08-11T08:14:54;101851.81;;;22.30;60.39
19795;BME280;10057;59.402;17.866;2022-08-11T08:17:41;101847.94;;;22.34;60.17
19795;BME280;10057;59.402;17.866;2022-08-11T08:20:41;101843.94;;;22.40;60.09
19795;BME280;10057;59.402;17.866;2022-08-11T08:23:11;101850.09;;;22.42;59.62
19795;BME280;10057;59.402;17.866;2022-08-11T08:25:41;101847.19;;;22.45;59.65
19795;BME280;10057;59.402;17.866;2022-08-11T08:28:11;101848.69;;;22.49;59.72
19795;BME280;10057;59.402;17.866;2022-08-11T08:30:41;101839.72;;;22.48;59.20
19795;BME280;10057;59.402;17.866;2022-08-11T08:33:25;101854.88;;;22.51;59.44
19795;BME280;10057;59.402;17.866;2022-08-11T08:35:55;101847.41;;;22.55;59.43
19795;BME280;10057;59.402;17.866;2022-08-11T08:38:48;101850.97;;;22.55;59.37
19795;BME280;10057;59.402;17.866;2022-08-11T08:41:28;101844.50;;;22.58;59.17
19795;BME280;10057;59.402;17.866;2022-08-11T08:43:58;101843.19;;;22.63;59.19
19795;BME280;10057;59.402;17.866;2022-08-11T08:46:52;101842.53;;;22.73;58.92
19795;BME280;10057;59.402;17.866;2022-08-11T08:49:28;101836.69;;;22.79;59.08
19795;BME280;10057;59.402;17.866;2022-08-11T08:52:00;101825.44;;;22.85;58.87
19795;BME280;10057;59.402;17.866;2022-08-11T08:54:51;101828.38;;;22.94;58.80
19795;BME280;10057;59.402;17.866;2022-08-11T08:57:22;101824.88;;;23.05;58.45
19795;BME280;10057;59.402;17.866;2022-08-11T08:59:50;101831.34;;;23.15;57.96
19795;BME280;10057;59.402;17.866;2022-08-11T09:02:22;101829.06;;;23.22;57.51
19795;BME280;10057;59.402;17.866;2022-08-11T09:05:02;101831.19;;;23.30;57.31
19795;BME280;10057;59.402;17.866;2022-08-11T09:07:30;101828.03;;;23.36;56.74
19795;BME280;10057;59.402;17.866;2022-08-11T09:10:07;101832.13;;;23.41;56.35
19795;BME280;10057;59.402;17.866;2022-08-11T09:12:34;101835.00;;;23.51;56.29
19795;BME280;10057;59.402;17.866;2022-08-11T09:15:05;101829.13;;;23.57;56.13
19795;BME280;10057;59.402;17.866;2022-08-11T09:17:46;101822.19;;;23.66;56.34
19795;BME280;10057;59.402;17.866;2022-08-11T09:20:24;101821.50;;;23.75;56.16
19795;BME280;10057;59.402;17.866;2022-08-11T09:22:55;101821.66;;;23.85;55.83
19795;BME280;10057;59.402;17.866;2022-08-11T09:26:01;101827.00;;;23.98;55.59
19795;BME280;10057;59.402;17.866;2022-08-11T09:28:56;101823.47;;;24.08;54.89
19795;BME280;10057;59.402;17.866;2022-08-11T09:31:24;101828.41;;;24.15;54.27
19795;BME280;10057;59.402;17.866;2022-08-11T09:33:53;101824.50;;;24.19;53.20
19795;BME280;10057;59.402;17.866;2022-08-11T09:36:21;101824.00;;;24.25;53.43
19795;BME280;10057;59.402;17.866;2022-08-11T09:39:06;101833.16;;;24.35;53.00
19795;BME280;10057;59.402;17.866;2022-08-11T09:41:52;101824.22;;;24.46;52.93
19795;BME280;10057;59.402;17.866;2022-08-11T09:44:33;101829.00;;;24.53;52.43
19795;BME280;10057;59.402;17.866;2022-08-11T09:47:19;101830.38;;;24.59;52.06
19795;BME280;10057;59.402;17.866;2022-08-11T09:49:46;101832.72;;;24.64;51.48
19795;BME280;10057;59.402;17.866;2022-08-11T09:52:14;101832.34;;;24.68;51.34
19795;BME280;10057;59.402;17.866;2022-08-11T09:54:46;101833.63;;;24.75;50.77
19795;BME280;10057;59.402;17.866;2022-08-11T09:57:14;101841.13;;;24.83;50.62
19795;BME280;10057;59.402;17.866;2022-08-11T10:00:04;101826.19;;;24.89;50.05
19795;BME280;10057;59.402;17.866;2022-08-11T10:02:44;101826.44;;;24.97;50.10
19795;BME280;10057;59.402;17.866;2022-08-11T10:05:14;101827.53;;;25.05;49.71
19795;BME280;10057;59.402;17.866;2022-08-11T10:08:02;101822.38;;;25.14;49.73
19795;BME280;10057;59.402;17.866;2022-08-11T10:10:30;101815.56;;;25.19;49.21
19795;BME280;10057;59.402;17.866;2022-08-11T10:13:02;101826.53;;;25.29;48.84
19795;BME280;10057;59.402;17.866;2022-08-11T10:15:53;101827.41;;;25.41;48.94
19795;BME280;10057;59.402;17.866;2022-08-11T10:18:41;101817.34;;;25.52;48.78
19795;BME280;10057;59.402;17.866;2022-08-11T10:21:23;101822.72;;;25.64;48.08
19795;BME280;10057;59.402;17.866;2022-08-11T10:23:55;101819.25;;;25.73;46.94
19795;BME280;10057;59.402;17.866;2022-08-11T10:26:43;101817.13;;;25.76;46.86
19795;BME280;10057;59.402;17.866;2022-08-11T10:29:24;101820.22;;;25.83;46.68
19795;BME280;10057;59.402;17.866;2022-08-11T10:32:20;101813.28;;;25.90;46.42
19795;BME280;10057;59.402;17.866;2022-08-11T10:35:24;101817.19;;;25.97;45.87
19795;BME280;10057;59.402;17.866;2022-08-11T10:37:54;101817.41;;;26.06;45.70
19795;BME280;10057;59.402;17.866;2022-08-11T10:40:37;101822.78;;;26.17;45.18
19795;BME280;10057;59.402;17.866;2022-08-11T10:43:04;101817.66;;;26.23;45.02
19795;BME280;10057;59.402;17.866;2022-08-11T10:45:37;101819.13;;;26.28;45.23
19795;BME280;10057;59.402;17.866;2022-08-11T10:48:24;101826.50;;;26.37;45.08
19795;BME280;10057;59.402;17.866;2022-08-11T10:50:53;101819.53;;;26.44;44.93
19795;BME280;10057;59.402;17.866;2022-08-11T10:53:42;101809.34;;;26.46;44.34
19795;BME280;10057;59.402;17.866;2022-08-11T10:56:33;101809.25;;;26.48;44.28
19795;BME280;10057;59.402;17.866;2022-08-11T10:59:19;101812.16;;;26.56;43.78
19795;BME280;10057;59.402;17.866;2022-08-11T11:01:47;101817.78;;;26.64;43.88
19795;BME280;10057;59.402;17.866;2022-08-11T11:04:22;101819.69;;;26.73;43.47
19795;BME280;10057;59.402;17.866;2022-08-11T11:07:03;101813.69;;;26.79;43.18
19795;BME280;10057;59.402;17.866;2022-08-11T11:09:33;101806.97;;;26.83;42.97
19795;BME280;10057;59.402;17.866;2022-08-11T11:12:21;101806.44;;;26.89;43.05
19795;BME280;10057;59.402;17.866;2022-08-11T11:15:08;101805.16;;;26.93;42.42
19795;BME280;10057;59.402;17.866;2022-08-11T11:18:02;101799.44;;;26.97;42.77
19795;BME280;10057;59.402;17.866;2022-08-11T11:20:39;101804.19;;;27.04;42.78
19795;BME280;10057;59.402;17.866;2022-08-11T11:23:17;101800.78;;;27.12;42.86
19795;BME280;10057;59.402;17.866;2022-08-11T11:26:18;101807.25;;;27.21;42.73
19795;BME280;10057;59.402;17.866;2022-08-11T11:31:50;101810.75;;;27.32;41.99
19795;BME280;10057;59.402;17.866;2022-08-11T11:37:21;101805.44;;;27.40;41.89
19795;BME280;10057;59.402;17.866;2022-08-11T11:39:49;101812.91;;;27.48;41.30
19795;BME280;10057;59.402;17.866;2022-08-11T11:42:16;101803.31;;;27.54;41.24
19795;BME280;10057;59.402;17.866;2022-08-11T11:44:44;101797.72;;;27.65;41.42
19795;BME280;10057;59.402;17.866;2022-08-11T11:47:12;101797.03;;;27.73;41.36
19795;BME280;10057;59.402;17.866;2022-08-11T11:49:42;101799.06;;;27.80;41.11
19795;BME280;10057;59.402;17.866;2022-08-11T11:52:15;101796.44;;;27.88;40.64
19795;BME280;10057;59.402;17.866;2022-08-11T11:54:50;101789.97;;;27.99;40.46
19795;BME280;10057;59.402;17.866;2022-08-11T11:57:20;101795.28;;;28.10;40.99
19795;BME280;10057;59.402;17.866;2022-08-11T12:00:08;101792.41;;;28.22;40.72
19795;BME280;10057;59.402;17.866;2022-08-11T12:03:01;101791.66;;;28.29;40.34
19795;BME280;10057;59.402;17.866;2022-08-11T12:05:30;101793.06;;;28.33;39.51
19795;BME280;10057;59.402;17.866;2022-08-11T12:08:00;101792.94;;;28.35;39.21
19795;BME280;10057;59.402;17.866;2022-08-11T12:10:55;101788.06;;;28.39;39.23
19795;BME280;10057;59.402;17.866;2022-08-11T12:13:44;101794.66;;;28.46;39.46
19795;BME280;10057;59.402;17.866;2022-08-11T12:16:13;101787.88;;;28.50;39.36
19795;BME280;10057;59.402;17.866;2022-08-11T12:19:04;101782.84;;;28.55;39.01
19795;BME280;10057;59.402;17.866;2022-08-11T12:21:33;101795.19;;;28.59;38.01
19795;BME280;10057;59.402;17.866;2022-08-11T12:24:01;101795.47;;;28.56;37.71
19795;BME280;10057;59.402;17.866;2022-08-11T12:26:47;101780.53;;;28.60;37.39
19795;BME280;10057;59.402;17.866;2022-08-11T12:29:35;101786.16;;;28.58;37.19
19795;BME280;10057;59.402;17.866;2022-08-11T12:32:09;101785.72;;;28.53;37.06
19795;BME280;10057;59.402;17.866;2022-08-11T12:34:36;101795.63;;;28.54;37.39
19795;BME280;10057;59.402;17.866;2022-08-11T12:37:04;101787.25;;;28.66;37.56
19795;BME280;10057;59.402;17.866;2022-08-11T12:39:43;101786.19;;;28.76;37.39
19795;BME280;10057;59.402;17.866;2022-08-11T12:42:50;101787.72;;;28.89;37.41
19795;BME280;10057;59.402;17.866;2022-08-11T12:45:51;101780.06;;;29.02;37.07
19795;BME280;10057;59.402;17.866;2022-08-11T12:48:20;101788.66;;;29.07;36.46
19795;BME280;10057;59.402;17.866;2022-08-11T12:51:31;101795.44;;;29.03;36.37
19795;BME280;10057;59.402;17.866;2022-08-11T12:54:59;101794.72;;;29.01;36.57
19795;BME280;10057;59.402;17.866;2022-08-11T12:57:33;101794.97;;;29.08;36.27
19795;BME280;10057;59.402;17.866;2022-08-11T13:00:21;101792.34;;;29.16;36.70
19795;BME280;10057;59.402;17.866;2022-08-11T13:03:09;101782.75;;;29.29;35.87
19795;BME280;10057;59.402;17.866;2022-08-11T13:05:57;101791.72;;;29.40;35.94
19795;BME280;10057;59.402;17.866;2022-08-11T13:08:26;101788.69;;;29.43;35.46
19795;BME280;10057;59.402;17.866;2022-08-11T13:10:57;101780.34;;;29.44;35.48
19795;BME280;10057;59.402;17.866;2022-08-11T13:13:44;101785.50;;;29.47;35.50
19795;BME280;10057;59.402;17.866;2022-08-11T13:16:29;101785.75;;;29.54;35.04
19795;BME280;10057;59.402;17.866;2022-08-11T13:18:58;101782.84;;;29.56;34.83
19795;BME280;10057;59.402;17.866;2022-08-11T13:21:27;101773.09;;;29.53;35.16
19795;BME280;10057;59.402;17.866;2022-08-11T13:23:54;101780.59;;;29.51;34.78
19795;BME280;10057;59.402;17.866;2022-08-11T13:26:35;101771.38;;;29.52;34.99
19795;BME280;10057;59.402;17.866;2022-08-11T13:29:20;101770.88;;;29.57;34.99
19795;BME280;10057;59.402;17.866;2022-08-11T13:31:48;101763.72;;;29.56;35.37
19795;BME280;10057;59.402;17.866;2022-08-11T13:34:16;101772.19;;;29.62;34.91
19795;BME280;10057;59.402;17.866;2022-08-11T13:36:49;101768.97;;;29.67;35.03
19795;BME280;10057;59.402;17.866;2022-08-11T13:39:18;101771.25;;;29.71;34.80
19795;BME280;10057;59.402;17.866;2022-08-11T13:41:46;101768.41;;;29.81;34.27
19795;BME280;10057;59.402;17.866;2022-08-11T13:44:16;101771.75;;;29.93;33.59
19795;BME280;10057;59.402;17.866;2022-08-11T13:46:50;101778.63;;;29.97;33.82
19795;BME280;10057;59.402;17.866;2022-08-11T13:49:19;101779.47;;;29.97;33.82
19795;BME280;10057;59.402;17.866;2022-08-11T13:51:47;101774.84;;;29.98;33.16
19795;BME280;10057;59.402;17.866;2022-08-11T13:54:21;101770.72;;;29.94;33.23
19795;BME280;10057;59.402;17.866;2022-08-11T13:56:52;101770.72;;;29.94;33.13
19795;BME280;10057;59.402;17.866;2022-08-11T13:59:20;101773.88;;;29.99;33.21
19795;BME280;10057;59.402;17.866;2022-08-11T14:01:57;101767.75;;;30.05;32.58
19795;BME280;10057;59.402;17.866;2022-08-11T14:07:20;101759.06;;;30.36;32.36
19795;BME280;10057;59.402;17.866;2022-08-11T14:09:55;101766.81;;;30.40;32.05
19795;BME280;10057;59.402;17.866;2022-08-11T14:12:28;101759.44;;;30.41;31.78
19795;BME280;10057;59.402;17.866;2022-08-11T14:15:22;101758.09;;;30.45;31.58
19795;BME280;10057;59.402;17.866;2022-08-11T14:17:53;101755.44;;;30.53;31.92
19795;BME280;10057;59.402;17.866;2022-08-11T14:20:28;101761.06;;;30.60;31.04
19795;BME280;10057;59.402;17.866;2022-08-11T14:23:25;101759.75;;;30.64;31.10
19795;BME280;10057;59.402;17.866;2022-08-11T14:25:53;101755.13;;;30.64;31.02
19795;BME280;10057;59.402;17.866;2022-08-11T14:28:40;101758.06;;;30.71;31.25
19795;BME280;10057;59.402;17.866;2022-08-11T14:31:12;101756.44;;;30.86;30.67
19795;BME280;10057;59.402;17.866;2022-08-11T14:33:40;101750.31;;;31.01;30.29
19795;BME280;10057;59.402;17.866;2022-08-11T14:36:29;101752.38;;;30.99;29.72
19795;BME280;10057;59.402;17.866;2022-08-11T14:38:56;101756.47;;;30.95;29.28
19795;BME280;10057;59.402;17.866;2022-08-11T14:41:24;101757.66;;;30.92;29.30
19795;BME280;10057;59.402;17.866;2022-08-11T14:44:33;101755.25;;;30.89;29.50
19795;BME280;10057;59.402;17.866;2022-08-11T14:47:20;101762.09;;;30.93;29.88
19795;BME280;10057;59.402;17.866;2022-08-11T14:49:53;101764.00;;;31.01;29.20
19795;BME280;10057;59.402;17.866;2022-08-11T14:52:51;101762.50;;;31.14;29.41
19795;BME280;10057;59.402;17.866;2022-08-11T14:55:22;101755.69;;;31.27;28.96
19795;BME280;10057;59.402;17.866;2022-08-11T14:58:14;101760.84;;;31.22;28.63
19795;BME280;10057;59.402;17.866;2022-08-11T15:00:44;101758.91;;;31.06;27.89
19795;BME280;10057;59.402;17.866;2022-08-11T15:03:13;101763.47;;;30.89;27.64
19795;BME280;10057;59.402;17.866;2022-08-11T15:05:49;101769.25;;;30.78;27.96
19795;BME280;10057;59.402;17.866;2022-08-11T15:08:25;101764.41;;;30.72;27.71
19795;BME280;10057;59.402;17.866;2022-08-11T15:11:15;101762.84;;;30.69;28.20
19795;BME280;10057;59.402;17.866;2022-08-11T15:14:02;101751.22;;;30.67;27.20
19795;BME280;10057;59.402;17.866;2022-08-11T15:16:30;101759.16;;;30.52;27.66
19795;BME280;10057;59.402;17.866;2022-08-11T15:19:17;101758.41;;;30.42;28.08
19795;BME280;10057;59.402;17.866;2022-08-11T15:21:47;101766.28;;;30.37;27.88
19795;BME280;10057;59.402;17.866;2022-08-11T15:24:34;101765.16;;;30.21;28.24
19795;BME280;10057;59.402;17.866;2022-08-11T15:27:13;101763.16;;;30.06;28.29
19795;BME280;10057;59.402;17.866;2022-08-11T15:30:03;101767.69;;;29.97;28.12
19795;BME280;10057;59.402;17.866;2022-08-11T15:33:05;101763.88;;;29.90;28.14
19795;BME280;10057;59.402;17.866;2022-08-11T15:35:51;101775.44;;;29.84;28.40
19795;BME280;10057;59.402;17.866;2022-08-11T15:38:41;101752.41;;;29.68;28.79
19795;BME280;10057;59.402;17.866;2022-08-11T15:41:12;101756.38;;;29.56;29.01
19795;BME280;10057;59.402;17.866;2022-08-11T15:44:04;101765.72;;;29.53;29.77
19795;BME280;10057;59.402;17.866;2022-08-11T15:47:11;101768.56;;;29.44;29.39
19795;BME280;10057;59.402;17.866;2022-08-11T15:49:40;101765.44;;;29.39;29.60
19795;BME280;10057;59.402;17.866;2022-08-11T15:52:33;101761.06;;;29.46;30.32
19795;BME280;10057;59.402;17.866;2022-08-11T15:55:06;101763.88;;;29.54;30.07
19795;BME280;10057;59.402;17.866;2022-08-11T15:57:35;101764.34;;;29.67;30.27
19795;BME280;10057;59.402;17.866;2022-08-11T16:00:21;101758.16;;;29.83;30.29
19795;BME280;10057;59.402;17.866;2022-08-11T16:03:12;101762.06;;;29.98;30.12
19795;BME280;10057;59.402;17.866;2022-08-11T16:06:32;101765.91;;;30.14;30.14
19795;BME280;10057;59.402;17.866;2022-08-11T16:09:02;101763.78;;;30.26;30.19
19795;BME280;10057;59.402;17.866;2022-08-11T16:11:44;101770.41;;;30.41;30.04
19795;BME280;10057;59.402;17.866;2022-08-11T16:14:13;101760.91;;;30.53;30.31
19795;BME280;10057;59.402;17.866;2022-08-11T16:17:00;101753.44;;;30.72;30.13
19795;BME280;10057;59.402;17.866;2022-08-11T16:19:30;101754.06;;;30.91;29.93
19795;BME280;10057;59.402;17.866;2022-08-11T16:22:07;101755.97;;;30.99;29.99
19795;BME280;10057;59.402;17.866;2022-08-11T16:24:37;101762.47;;;30.98;30.34
19795;BME280;10057;59.402;17.866;2022-08-11T16:27:25;101755.66;;;31.10;30.34
19795;BME280;10057;59.402;17.866;2022-08-11T16:29:54;101764.56;;;31.21;29.94
19795;BME280;10057;59.402;17.866;2022-08-11T16:32:22;101767.06;;;31.32;30.49
19795;BME280;10057;59.402;17.866;2022-08-11T16:34:57;101757.97;;;31.39;30.09
19795;BME280;10057;59.402;17.866;2022-08-11T16:37:43;101758.31;;;31.45;29.82